sensor_id;sensor_type;location;lat;lon;timestamp;P1;durP1;ratioP1;P2;durP2;ratioP2
54328;SDS011;40710;51.120;13.136;2022-09-09T00:04:28;1481.07;;;485.52;;
54328;SDS011;40710;51.120;13.136;2022-09-09T00:07:14;1373.25;;;524.53;;
54328;SDS011;40710;51.120;13.136;2022-09-09T00:09:50;1383.05;;;498.75;;
54328;SDS011;40710;51.120;13.136;2022-09-09T00:15:20;1368.13;;;563.22;;
54328;SDS011;40710;51.120;13.136;2022-09-09T00:17:53;1364.22;;;577.10;;
54328;SDS011;40710;51.120;13.136;2022-09-09T00:20:21;1356.45;;;592.90;;
54328;SDS011;40710;51.120;13.136;2022-09-09T00:23:09;1378.93;;;564.67;;
54328;SDS011;40710;51.120;13.136;2022-09-09T00:25:43;1382.38;;;513.92;;
54328;SDS011;40710;51.120;13.136;2022-09-09T00:28:13;1427.57;;;487.25;;
54328;SDS011;40710;51.120;13.136;2022-09-09T00:30:42;1373.85;;;539.72;;
54328;SDS011;40710;51.120;13.136;2022-09-09T00:33:11;1374.80;;;568.75;;
54328;SDS011;40710;51.120;13.136;2022-09-09T00:35:40;1388.82;;;576.17;;
54328;SDS011;40710;51.120;13.136;2022-09-09T00:38:42;1411.93;;;544.50;;
54328;SDS011;40710;51.120;13.136;2022-09-09T00:41:07;1377.85;;;569.75;;
54328;SDS011;40710;51.120;13.136;2022-09-09T00:43:39;1455.85;;;594.75;;
54328;SDS011;40710;51.120;13.136;2022-09-09T00:46:17;1451.90;;;574.92;;
54328;SDS011;40710;51.120;13.136;2022-09-09T00:59:47;1398.30;;;557.03;;
54328;SDS011;40710;51.120;13.136;2022-09-09T01:02:27;1468.55;;;536.70;;
54328;SDS011;40710;51.120;13.136;2022-09-09T01:04:58;1419.53;;;424.77;;
54328;SDS011;40710;51.120;13.136;2022-09-09T01:07:30;1416.30;;;470.83;;
54328;SDS011;40710;51.120;13.136;2022-09-09T01:09:59;1474.95;;;502.02;;
54328;SDS011;40710;51.120;13.136;2022-09-09T01:12:30;1487.27;;;436.83;;
54328;SDS011;40710;51.120;13.136;2022-09-09T01:24:34;1425.22;;;404.08;;
54328;SDS011;40710;51.120;13.136;2022-09-09T01:26:52;1486.47;;;411.00;;
54328;SDS011;40710;51.120;13.136;2022-09-09T01:29:21;1433.82;;;418.38;;
54328;SDS011;40710;51.120;13.136;2022-09-09T01:34:25;1504.57;;;484.95;;
54328;SDS011;40710;51.120;13.136;2022-09-09T01:37:00;1500.40;;;429.08;;
54328;SDS011;40710;51.120;13.136;2022-09-09T01:39:28;1436.25;;;427.00;;
54328;SDS011;40710;51.120;13.136;2022-09-09T01:41:53;1445.28;;;456.02;;
54328;SDS011;40710;51.120;13.136;2022-09-09T01:44:19;1493.60;;;442.58;;
54328;SDS011;40710;51.120;13.136;2022-09-09T01:46:44;1437.18;;;443.75;;
54328;SDS011;40710;51.120;13.136;2022-09-09T01:49:09;1474.00;;;468.35;;
54328;SDS011;40710;51.120;13.136;2022-09-09T01:51:35;1445.97;;;468.63;;
54328;SDS011;40710;51.120;13.136;2022-09-09T01:54:01;1441.88;;;444.38;;
54328;SDS011;40710;51.120;13.136;2022-09-09T01:59:14;1424.57;;;476.50;;
54328;SDS011;40710;51.120;13.136;2022-09-09T02:04:34;1409.80;;;458.20;;
54328;SDS011;40710;51.120;13.136;2022-09-09T02:07:02;1437.60;;;480.27;;
54328;SDS011;40710;51.120;13.136;2022-09-09T02:09:26;1422.70;;;511.67;;
54328;SDS011;40710;51.120;13.136;2022-09-09T02:11:59;1402.85;;;484.95;;
54328;SDS011;40710;51.120;13.136;2022-09-09T02:14:31;1395.10;;;474.80;;
54328;SDS011;40710;51.120;13.136;2022-09-09T02:17:08;1474.85;;;505.52;;
54328;SDS011;40710;51.120;13.136;2022-09-09T02:19:52;1438.43;;;532.28;;
54328;SDS011;40710;51.120;13.136;2022-09-09T02:22:24;1442.47;;;495.50;;
54328;SDS011;40710;51.120;13.136;2022-09-09T02:24:50;1420.57;;;504.13;;
54328;SDS011;40710;51.120;13.136;2022-09-09T02:27:20;1368.25;;;513.45;;
54328;SDS011;40710;51.120;13.136;2022-09-09T02:29:46;1441.35;;;450.50;;
54328;SDS011;40710;51.120;13.136;2022-09-09T02:32:12;1457.82;;;418.65;;
54328;SDS011;40710;51.120;13.136;2022-09-09T02:34:40;1399.97;;;408.02;;
54328;SDS011;40710;51.120;13.136;2022-09-09T02:37:09;1448.55;;;464.20;;
54328;SDS011;40710;51.120;13.136;2022-09-09T02:39:35;1393.97;;;444.90;;
54328;SDS011;40710;51.120;13.136;2022-09-09T02:41:59;1450.00;;;443.08;;
54328;SDS011;40710;51.120;13.136;2022-09-09T02:44:24;1418.65;;;467.02;;
54328;SDS011;40710;51.120;13.136;2022-09-09T02:46:53;1386.30;;;441.35;;
54328;SDS011;40710;51.120;13.136;2022-09-09T02:49:28;1414.20;;;456.73;;
54328;SDS011;40710;51.120;13.136;2022-09-09T02:52:13;1375.18;;;473.67;;
54328;SDS011;40710;51.120;13.136;2022-09-09T02:54:42;1401.88;;;475.70;;
54328;SDS011;40710;51.120;13.136;2022-09-09T02:57:10;1417.95;;;460.70;;
54328;SDS011;40710;51.120;13.136;2022-09-09T02:59:38;1370.32;;;460.33;;
54328;SDS011;40710;51.120;13.136;2022-09-09T03:02:03;1413.00;;;463.50;;
54328;SDS011;40710;51.120;13.136;2022-09-09T03:04:27;1402.47;;;494.50;;
54328;SDS011;40710;51.120;13.136;2022-09-09T03:06:52;1376.63;;;526.42;;
54328;SDS011;40710;51.120;13.136;2022-09-09T03:09:16;1372.03;;;485.35;;
54328;SDS011;40710;51.120;13.136;2022-09-09T03:11:41;1418.35;;;463.48;;
54328;SDS011;40710;51.120;13.136;2022-09-09T03:14:05;1356.65;;;483.52;;
54328;SDS011;40710;51.120;13.136;2022-09-09T03:16:30;1370.47;;;471.25;;
54328;SDS011;40710;51.120;13.136;2022-09-09T03:18:57;1411.90;;;465.45;;
54328;SDS011;40710;51.120;13.136;2022-09-09T03:21:21;1344.25;;;507.60;;
54328;SDS011;40710;51.120;13.136;2022-09-09T03:23:46;1331.00;;;528.40;;
54328;SDS011;40710;51.120;13.136;2022-09-09T03:26:10;1334.40;;;535.33;;
54328;SDS011;40710;51.120;13.136;2022-09-09T03:28:35;1333.35;;;529.28;;
54328;SDS011;40710;51.120;13.136;2022-09-09T03:31:03;1352.22;;;513.67;;
54328;SDS011;40710;51.120;13.136;2022-09-09T03:33:29;1355.22;;;511.52;;
54328;SDS011;40710;51.120;13.136;2022-09-09T03:35:54;1341.80;;;540.30;;
54328;SDS011;40710;51.120;13.136;2022-09-09T03:38:20;1353.88;;;511.15;;
54328;SDS011;40710;51.120;13.136;2022-09-09T03:40:51;1394.65;;;508.55;;
54328;SDS011;40710;51.120;13.136;2022-09-09T03:43:19;1354.60;;;521.60;;
54328;SDS011;40710;51.120;13.136;2022-09-09T03:45:46;1348.30;;;525.28;;
54328;SDS011;40710;51.120;13.136;2022-09-09T03:48:14;1333.30;;;520.08;;
54328;SDS011;40710;51.120;13.136;2022-09-09T03:50:43;1324.40;;;533.00;;
54328;SDS011;40710;51.120;13.136;2022-09-09T03:53:08;1331.70;;;532.22;;
54328;SDS011;40710;51.120;13.136;2022-09-09T03:55:33;1362.72;;;523.55;;
54328;SDS011;40710;51.120;13.136;2022-09-09T03:57:57;1361.50;;;525.78;;
54328;SDS011;40710;51.120;13.136;2022-09-09T04:00:22;1444.55;;;409.58;;
54328;SDS011;40710;51.120;13.136;2022-09-09T04:02:46;1447.25;;;441.85;;
54328;SDS011;40710;51.120;13.136;2022-09-09T04:05:11;1425.45;;;465.67;;
54328;SDS011;40710;51.120;13.136;2022-09-09T04:07:35;1368.28;;;464.58;;
54328;SDS011;40710;51.120;13.136;2022-09-09T04:09:59;1386.57;;;478.00;;
54328;SDS011;40710;51.120;13.136;2022-09-09T04:12:24;1433.60;;;448.58;;
54328;SDS011;40710;51.120;13.136;2022-09-09T04:14:48;1380.45;;;445.73;;
54328;SDS011;40710;51.120;13.136;2022-09-09T04:17:13;1374.53;;;438.63;;
54328;SDS011;40710;51.120;13.136;2022-09-09T04:19:37;1364.47;;;476.67;;
54328;SDS011;40710;51.120;13.136;2022-09-09T04:22:02;1365.03;;;466.15;;
54328;SDS011;40710;51.120;13.136;2022-09-09T04:24:26;1369.00;;;442.88;;
54328;SDS011;40710;51.120;13.136;2022-09-09T04:26:51;1351.03;;;494.00;;
54328;SDS011;40710;51.120;13.136;2022-09-09T04:29:16;1420.43;;;450.35;;
54328;SDS011;40710;51.120;13.136;2022-09-09T04:31:41;1411.78;;;467.90;;
54328;SDS011;40710;51.120;13.136;2022-09-09T04:34:05;1354.57;;;484.63;;
54328;SDS011;40710;51.120;13.136;2022-09-09T04:36:31;1408.05;;;487.63;;
54328;SDS011;40710;51.120;13.136;2022-09-09T04:38:56;1354.18;;;480.05;;
54328;SDS011;40710;51.120;13.136;2022-09-09T04:41:20;1363.10;;;469.98;;
54328;SDS011;40710;51.120;13.136;2022-09-09T04:43:45;1350.05;;;480.27;;
54328;SDS011;40710;51.120;13.136;2022-09-09T04:46:09;1361.97;;;482.73;;
54328;SDS011;40710;51.120;13.136;2022-09-09T04:48:34;1382.15;;;489.27;;
54328;SDS011;40710;51.120;13.136;2022-09-09T04:50:59;1408.63;;;502.17;;
54328;SDS011;40710;51.120;13.136;2022-09-09T04:53:35;1368.25;;;470.73;;
54328;SDS011;40710;51.120;13.136;2022-09-09T04:58:28;1349.90;;;476.85;;
54328;SDS011;40710;51.120;13.136;2022-09-09T05:00:53;1343.85;;;472.00;;
54328;SDS011;40710;51.120;13.136;2022-09-09T05:03:17;1406.18;;;433.13;;
54328;SDS011;40710;51.120;13.136;2022-09-09T05:05:42;1396.18;;;481.83;;
54328;SDS011;40710;51.120;13.136;2022-09-09T05:08:07;1359.28;;;479.40;;
54328;SDS011;40710;51.120;13.136;2022-09-09T05:10:33;1386.88;;;506.33;;
54328;SDS011;40710;51.120;13.136;2022-09-09T05:12:58;1378.32;;;482.70;;
54328;SDS011;40710;51.120;13.136;2022-09-09T05:15:22;1403.50;;;473.75;;
54328;SDS011;40710;51.120;13.136;2022-09-09T05:17:47;1355.55;;;517.58;;
54328;SDS011;40710;51.120;13.136;2022-09-09T05:20:11;1384.20;;;508.38;;
54328;SDS011;40710;51.120;13.136;2022-09-09T05:22:36;1398.32;;;496.13;;
54328;SDS011;40710;51.120;13.136;2022-09-09T05:25:00;1392.82;;;494.00;;
54328;SDS011;40710;51.120;13.136;2022-09-09T05:27:25;1323.95;;;529.50;;
54328;SDS011;40710;51.120;13.136;2022-09-09T05:29:50;1348.72;;;507.50;;
54328;SDS011;40710;51.120;13.136;2022-09-09T05:32:14;1403.30;;;449.05;;
54328;SDS011;40710;51.120;13.136;2022-09-09T05:34:41;1344.65;;;505.08;;
54328;SDS011;40710;51.120;13.136;2022-09-09T05:37:06;1393.95;;;503.38;;
54328;SDS011;40710;51.120;13.136;2022-09-09T05:39:31;1374.70;;;507.20;;
54328;SDS011;40710;51.120;13.136;2022-09-09T05:41:57;1364.95;;;487.92;;
54328;SDS011;40710;51.120;13.136;2022-09-09T05:44:21;1370.57;;;504.92;;
54328;SDS011;40710;51.120;13.136;2022-09-09T05:46:48;1363.10;;;498.10;;
54328;SDS011;40710;51.120;13.136;2022-09-09T05:49:13;1380.13;;;500.85;;
54328;SDS011;40710;51.120;13.136;2022-09-09T05:51:39;1336.85;;;510.13;;
54328;SDS011;40710;51.120;13.136;2022-09-09T05:54:04;1387.10;;;494.65;;
54328;SDS011;40710;51.120;13.136;2022-09-09T05:56:28;1332.22;;;503.55;;
54328;SDS011;40710;51.120;13.136;2022-09-09T05:58:53;1337.22;;;492.33;;
54328;SDS011;40710;51.120;13.136;2022-09-09T06:01:20;1340.95;;;498.10;;
54328;SDS011;40710;51.120;13.136;2022-09-09T06:03:46;1438.88;;;424.92;;
54328;SDS011;40710;51.120;13.136;2022-09-09T06:06:16;1426.32;;;437.45;;
54328;SDS011;40710;51.120;13.136;2022-09-09T06:08:44;1367.30;;;423.35;;
54328;SDS011;40710;51.120;13.136;2022-09-09T06:11:10;1352.97;;;492.13;;
54328;SDS011;40710;51.120;13.136;2022-09-09T06:13:36;1373.10;;;466.83;;
54328;SDS011;40710;51.120;13.136;2022-09-09T06:16:03;1392.40;;;494.48;;
54328;SDS011;40710;51.120;13.136;2022-09-09T06:18:28;1358.28;;;509.27;;
54328;SDS011;40710;51.120;13.136;2022-09-09T06:20:57;1347.55;;;512.88;;
54328;SDS011;40710;51.120;13.136;2022-09-09T06:23:24;1365.85;;;502.00;;
54328;SDS011;40710;51.120;13.136;2022-09-09T06:25:49;1332.85;;;557.45;;
54328;SDS011;40710;51.120;13.136;2022-09-09T06:28:14;1356.63;;;547.83;;
54328;SDS011;40710;51.120;13.136;2022-09-09T06:30:39;1383.43;;;537.33;;
54328;SDS011;40710;51.120;13.136;2022-09-09T06:33:04;1372.68;;;530.72;;
54328;SDS011;40710;51.120;13.136;2022-09-09T06:35:28;1366.05;;;524.65;;
54328;SDS011;40710;51.120;13.136;2022-09-09T06:37:52;1391.70;;;509.85;;
54328;SDS011;40710;51.120;13.136;2022-09-09T06:40:17;1396.93;;;518.15;;
54328;SDS011;40710;51.120;13.136;2022-09-09T06:42:41;1337.05;;;542.58;;
54328;SDS011;40710;51.120;13.136;2022-09-09T06:45:06;1335.88;;;560.28;;
54328;SDS011;40710;51.120;13.136;2022-09-09T06:47:31;1337.38;;;559.15;;
54328;SDS011;40710;51.120;13.136;2022-09-09T06:49:55;1346.38;;;575.85;;
54328;SDS011;40710;51.120;13.136;2022-09-09T06:52:20;1338.38;;;564.25;;
54328;SDS011;40710;51.120;13.136;2022-09-09T06:54:45;1347.15;;;563.08;;
54328;SDS011;40710;51.120;13.136;2022-09-09T06:57:09;1395.75;;;552.00;;
54328;SDS011;40710;51.120;13.136;2022-09-09T06:59:33;1389.90;;;464.35;;
54328;SDS011;40710;51.120;13.136;2022-09-09T07:01:58;1388.05;;;476.48;;
54328;SDS011;40710;51.120;13.136;2022-09-09T07:04:22;1418.55;;;509.40;;
54328;SDS011;40710;51.120;13.136;2022-09-09T07:06:46;1387.43;;;479.80;;
54328;SDS011;40710;51.120;13.136;2022-09-09T07:09:11;1407.95;;;539.38;;
54328;SDS011;40710;51.120;13.136;2022-09-09T07:11:39;1366.25;;;563.40;;
54328;SDS011;40710;51.120;13.136;2022-09-09T07:14:05;1404.75;;;520.70;;
54328;SDS011;40710;51.120;13.136;2022-09-09T07:16:30;1360.70;;;569.50;;
54328;SDS011;40710;51.120;13.136;2022-09-09T07:18:57;1349.13;;;608.22;;
54328;SDS011;40710;51.120;13.136;2022-09-09T07:21:21;1376.35;;;568.63;;
54328;SDS011;40710;51.120;13.136;2022-09-09T07:23:46;1331.68;;;596.60;;
54328;SDS011;40710;51.120;13.136;2022-09-09T07:26:11;1422.85;;;497.90;;
54328;SDS011;40710;51.120;13.136;2022-09-09T07:28:37;1391.38;;;544.70;;
54328;SDS011;40710;51.120;13.136;2022-09-09T07:31:02;1367.28;;;547.33;;
54328;SDS011;40710;51.120;13.136;2022-09-09T07:33:27;1407.93;;;502.13;;
54328;SDS011;40710;51.120;13.136;2022-09-09T07:36:01;1345.68;;;565.30;;
54328;SDS011;40710;51.120;13.136;2022-09-09T07:38:28;1328.70;;;589.53;;
54328;SDS011;40710;51.120;13.136;2022-09-09T07:40:53;1329.40;;;589.17;;
54328;SDS011;40710;51.120;13.136;2022-09-09T07:43:17;1381.20;;;570.33;;
54328;SDS011;40710;51.120;13.136;2022-09-09T07:45:42;1319.85;;;605.35;;
54328;SDS011;40710;51.120;13.136;2022-09-09T07:48:08;1337.47;;;565.97;;
54328;SDS011;40710;51.120;13.136;2022-09-09T07:50:32;1321.65;;;604.85;;
54328;SDS011;40710;51.120;13.136;2022-09-09T07:52:57;1350.38;;;570.47;;
54328;SDS011;40710;51.120;13.136;2022-09-09T07:55:22;1315.07;;;602.17;;
54328;SDS011;40710;51.120;13.136;2022-09-09T07:57:49;1349.50;;;571.80;;
54328;SDS011;40710;51.120;13.136;2022-09-09T08:00:14;1306.82;;;591.70;;
54328;SDS011;40710;51.120;13.136;2022-09-09T08:02:39;1314.18;;;599.17;;
54328;SDS011;40710;51.120;13.136;2022-09-09T08:05:03;1296.50;;;591.92;;
54328;SDS011;40710;51.120;13.136;2022-09-09T08:07:28;1359.57;;;562.05;;
54328;SDS011;40710;51.120;13.136;2022-09-09T08:09:53;1348.47;;;559.67;;
54328;SDS011;40710;51.120;13.136;2022-09-09T08:12:19;1430.82;;;415.23;;
54328;SDS011;40710;51.120;13.136;2022-09-09T08:14:44;1378.88;;;447.38;;
54328;SDS011;40710;51.120;13.136;2022-09-09T08:17:08;1417.22;;;444.65;;
54328;SDS011;40710;51.120;13.136;2022-09-09T08:19:32;1426.88;;;429.10;;
54328;SDS011;40710;51.120;13.136;2022-09-09T08:21:59;1383.43;;;419.00;;
54328;SDS011;40710;51.120;13.136;2022-09-09T08:24:25;1403.10;;;489.50;;
54328;SDS011;40710;51.120;13.136;2022-09-09T08:26:50;1399.60;;;485.33;;
54328;SDS011;40710;51.120;13.136;2022-09-09T08:29:14;1407.57;;;466.15;;
54328;SDS011;40710;51.120;13.136;2022-09-09T08:31:43;1397.65;;;478.00;;
54328;SDS011;40710;51.120;13.136;2022-09-09T08:34:19;1401.38;;;498.73;;
54328;SDS011;40710;51.120;13.136;2022-09-09T08:36:44;1390.82;;;498.80;;
54328;SDS011;40710;51.120;13.136;2022-09-09T08:39:10;1331.22;;;512.17;;
54328;SDS011;40710;51.120;13.136;2022-09-09T08:52:23;1326.60;;;528.28;;
54328;SDS011;40710;51.120;13.136;2022-09-09T08:55:01;1326.10;;;546.70;;
54328;SDS011;40710;51.120;13.136;2022-09-09T08:57:34;1323.43;;;528.22;;
54328;SDS011;40710;51.120;13.136;2022-09-09T08:59:58;1331.93;;;534.15;;
54328;SDS011;40710;51.120;13.136;2022-09-09T09:02:39;1343.68;;;527.90;;
54328;SDS011;40710;51.120;13.136;2022-09-09T09:05:36;1396.82;;;509.63;;
54328;SDS011;40710;51.120;13.136;2022-09-09T09:08:22;1375.32;;;533.10;;
54328;SDS011;40710;51.120;13.136;2022-09-09T09:10:54;1308.07;;;540.38;;
54328;SDS011;40710;51.120;13.136;2022-09-09T09:13:31;1346.38;;;534.50;;
54328;SDS011;40710;51.120;13.136;2022-09-09T09:16:13;1326.95;;;549.60;;
54328;SDS011;40710;51.120;13.136;2022-09-09T09:18:44;1372.65;;;554.45;;
54328;SDS011;40710;51.120;13.136;2022-09-09T09:21:11;1306.88;;;571.97;;
54328;SDS011;40710;51.120;13.136;2022-09-09T09:23:42;1334.32;;;553.28;;
54328;SDS011;40710;51.120;13.136;2022-09-09T09:26:16;1377.43;;;558.53;;
54328;SDS011;40710;51.120;13.136;2022-09-09T09:28:40;1385.63;;;560.42;;
54328;SDS011;40710;51.120;13.136;2022-09-09T09:33:45;1385.55;;;567.13;;
54328;SDS011;40710;51.120;13.136;2022-09-09T09:36:13;1381.10;;;579.97;;
54328;SDS011;40710;51.120;13.136;2022-09-09T09:38:51;1377.50;;;588.72;;
54328;SDS011;40710;51.120;13.136;2022-09-09T09:41:17;1319.90;;;647.00;;
54328;SDS011;40710;51.120;13.136;2022-09-09T09:43:54;1380.18;;;593.67;;
54328;SDS011;40710;51.120;13.136;2022-09-09T09:46:19;1341.50;;;637.72;;
54328;SDS011;40710;51.120;13.136;2022-09-09T09:48:56;1304.97;;;703.55;;
54328;SDS011;40710;51.120;13.136;2022-09-09T09:51:32;1317.07;;;731.92;;
54328;SDS011;40710;51.120;13.136;2022-09-09T09:56:37;1305.63;;;750.20;;
54328;SDS011;40710;51.120;13.136;2022-09-09T09:59:01;1310.95;;;768.92;;
54328;SDS011;40710;51.120;13.136;2022-09-09T10:01:27;1361.15;;;687.08;;
54328;SDS011;40710;51.120;13.136;2022-09-09T10:03:54;1366.75;;;681.90;;
54328;SDS011;40710;51.120;13.136;2022-09-09T10:06:35;1306.53;;;781.88;;
54328;SDS011;40710;51.120;13.136;2022-09-09T10:09:03;1308.32;;;785.55;;
54328;SDS011;40710;51.120;13.136;2022-09-09T10:14:21;1343.85;;;706.40;;
54328;SDS011;40710;51.120;13.136;2022-09-09T10:17:01;1298.72;;;785.78;;
54328;SDS011;40710;51.120;13.136;2022-09-09T10:19:32;1284.72;;;815.95;;
54328;SDS011;40710;51.120;13.136;2022-09-09T10:30:52;1286.82;;;797.92;;
54328;SDS011;40710;51.120;13.136;2022-09-09T10:36:27;1344.22;;;675.53;;
54328;SDS011;40710;51.120;13.136;2022-09-09T10:38:53;1307.03;;;688.05;;
54328;SDS011;40710;51.120;13.136;2022-09-09T10:41:42;1340.13;;;679.83;;
54328;SDS011;40710;51.120;13.136;2022-09-09T10:44:24;1369.15;;;574.42;;
54328;SDS011;40710;51.120;13.136;2022-09-09T10:47:05;1295.53;;;722.63;;
54328;SDS011;40710;51.120;13.136;2022-09-09T10:52:22;1366.30;;;547.28;;
54328;SDS011;40710;51.120;13.136;2022-09-09T10:55:16;1389.40;;;455.83;;
54328;SDS011;40710;51.120;13.136;2022-09-09T10:57:46;1369.45;;;543.90;;
54328;SDS011;40710;51.120;13.136;2022-09-09T11:00:18;1354.80;;;588.92;;
54328;SDS011;40710;51.120;13.136;2022-09-09T11:02:52;1348.47;;;625.17;;
54328;SDS011;40710;51.120;13.136;2022-09-09T11:05:27;1281.47;;;762.63;;
54328;SDS011;40710;51.120;13.136;2022-09-09T11:10:40;1350.10;;;608.20;;
54328;SDS011;40710;51.120;13.136;2022-09-09T11:13:11;1369.00;;;575.13;;
54328;SDS011;40710;51.120;13.136;2022-09-09T11:15:49;1341.63;;;647.83;;
54328;SDS011;40710;51.120;13.136;2022-09-09T11:18:19;1276.18;;;757.97;;
54328;SDS011;40710;51.120;13.136;2022-09-09T11:20:49;1285.10;;;756.72;;
54328;SDS011;40710;51.120;13.136;2022-09-09T11:23:22;1289.63;;;797.33;;
54328;SDS011;40710;51.120;13.136;2022-09-09T11:25:53;1355.70;;;620.30;;
54328;SDS011;40710;51.120;13.136;2022-09-09T11:33:57;1299.70;;;742.65;;
54328;SDS011;40710;51.120;13.136;2022-09-09T11:36:31;1292.80;;;781.45;;
54328;SDS011;40710;51.120;13.136;2022-09-09T11:39:30;1342.75;;;645.30;;
54328;SDS011;40710;51.120;13.136;2022-09-09T11:42:07;1288.40;;;742.20;;
54328;SDS011;40710;51.120;13.136;2022-09-09T11:44:52;1298.53;;;733.80;;
54328;SDS011;40710;51.120;13.136;2022-09-09T11:49:50;1302.25;;;691.55;;
54328;SDS011;40710;51.120;13.136;2022-09-09T11:52:25;1339.15;;;663.53;;
54328;SDS011;40710;51.120;13.136;2022-09-09T11:55:08;1390.90;;;512.17;;
54328;SDS011;40710;51.120;13.136;2022-09-09T11:57:36;1316.53;;;625.30;;
54328;SDS011;40710;51.120;13.136;2022-09-09T12:00:00;1362.95;;;581.72;;
54328;SDS011;40710;51.120;13.136;2022-09-09T12:02:27;1346.85;;;634.50;;
54328;SDS011;40710;51.120;13.136;2022-09-09T12:07:24;1295.10;;;721.03;;
54328;SDS011;40710;51.120;13.136;2022-09-09T12:12:55;1360.82;;;600.10;;
54328;SDS011;40710;51.120;13.136;2022-09-09T12:15:33;1345.13;;;625.05;;
54328;SDS011;40710;51.120;13.136;2022-09-09T12:17:58;1342.00;;;650.40;;
54328;SDS011;40710;51.120;13.136;2022-09-09T12:23:18;1297.00;;;704.22;;
54328;SDS011;40710;51.120;13.136;2022-09-09T12:26:02;1342.35;;;622.85;;
54328;SDS011;40710;51.120;13.136;2022-09-09T12:31:31;1338.60;;;635.50;;
54328;SDS011;40710;51.120;13.136;2022-09-09T12:34:10;1326.13;;;673.22;;
54328;SDS011;40710;51.120;13.136;2022-09-09T12:36:38;1329.35;;;677.30;;
54328;SDS011;40710;51.120;13.136;2022-09-09T12:41:55;1326.70;;;675.60;;
54328;SDS011;40710;51.120;13.136;2022-09-09T12:44:21;1288.63;;;778.15;;
54328;SDS011;40710;51.120;13.136;2022-09-09T12:46:45;1315.28;;;664.50;;
54328;SDS011;40710;51.120;13.136;2022-09-09T12:49:27;1311.25;;;687.97;;
54328;SDS011;40710;51.120;13.136;2022-09-09T12:51:58;1369.18;;;601.00;;
54328;SDS011;40710;51.120;13.136;2022-09-09T12:54:22;1385.80;;;588.53;;
54328;SDS011;40710;51.120;13.136;2022-09-09T12:56:47;1349.72;;;698.30;;
54328;SDS011;40710;51.120;13.136;2022-09-09T12:59:26;1285.53;;;771.67;;
54328;SDS011;40710;51.120;13.136;2022-09-09T13:01:59;1353.05;;;658.78;;
54328;SDS011;40710;51.120;13.136;2022-09-09T13:04:24;1363.03;;;640.63;;
54328;SDS011;40710;51.120;13.136;2022-09-09T13:06:48;1364.13;;;647.55;;
54328;SDS011;40710;51.120;13.136;2022-09-09T13:09:13;1347.70;;;648.67;;
54328;SDS011;40710;51.120;13.136;2022-09-09T13:11:38;1292.50;;;746.72;;
54328;SDS011;40710;51.120;13.136;2022-09-09T13:14:06;1350.35;;;642.72;;
54328;SDS011;40710;51.120;13.136;2022-09-09T13:16:31;1298.38;;;744.20;;
54328;SDS011;40710;51.120;13.136;2022-09-09T13:18:58;1330.55;;;723.72;;
54328;SDS011;40710;51.120;13.136;2022-09-09T13:21:34;1300.03;;;761.88;;
54328;SDS011;40710;51.120;13.136;2022-09-09T13:24:01;1357.63;;;634.08;;
54328;SDS011;40710;51.120;13.136;2022-09-09T13:26:28;1359.35;;;634.78;;
54328;SDS011;40710;51.120;13.136;2022-09-09T13:28:54;1315.43;;;665.17;;
54328;SDS011;40710;51.120;13.136;2022-09-09T13:31:23;1345.18;;;644.50;;
54328;SDS011;40710;51.120;13.136;2022-09-09T13:33:52;1354.10;;;643.17;;
54328;SDS011;40710;51.120;13.136;2022-09-09T13:36:17;1290.25;;;742.60;;
54328;SDS011;40710;51.120;13.136;2022-09-09T13:38:54;1300.53;;;709.53;;
54328;SDS011;40710;51.120;13.136;2022-09-09T13:41:24;1372.03;;;595.92;;
54328;SDS011;40710;51.120;13.136;2022-09-09T13:44:18;1305.63;;;677.25;;
54328;SDS011;40710;51.120;13.136;2022-09-09T13:46:47;1308.93;;;691.47;;
54328;SDS011;40710;51.120;13.136;2022-09-09T13:51:37;1308.82;;;694.17;;
54328;SDS011;40710;51.120;13.136;2022-09-09T13:54:03;1316.55;;;651.70;;
54328;SDS011;40710;51.120;13.136;2022-09-09T13:56:33;1309.43;;;658.40;;
54328;SDS011;40710;51.120;13.136;2022-09-09T13:58:59;1349.25;;;660.05;;
54328;SDS011;40710;51.120;13.136;2022-09-09T14:01:23;1290.97;;;727.28;;
54328;SDS011;40710;51.120;13.136;2022-09-09T14:03:47;1296.50;;;705.13;;
54328;SDS011;40710;51.120;13.136;2022-09-09T14:06:12;1294.40;;;715.60;;
54328;SDS011;40710;51.120;13.136;2022-09-09T14:08:37;1363.38;;;626.08;;
54328;SDS011;40710;51.120;13.136;2022-09-09T14:11:03;1363.32;;;612.85;;
54328;SDS011;40710;51.120;13.136;2022-09-09T14:13:28;1282.15;;;778.20;;
54328;SDS011;40710;51.120;13.136;2022-09-09T14:15:52;1352.93;;;646.40;;
54328;SDS011;40710;51.120;13.136;2022-09-09T14:18:17;1295.30;;;745.53;;
54328;SDS011;40710;51.120;13.136;2022-09-09T14:20:42;1291.57;;;759.10;;
54328;SDS011;40710;51.120;13.136;2022-09-09T14:23:08;1356.18;;;646.22;;
54328;SDS011;40710;51.120;13.136;2022-09-09T14:25:34;1360.68;;;625.10;;
54328;SDS011;40710;51.120;13.136;2022-09-09T14:27:59;1305.50;;;658.92;;
54328;SDS011;40710;51.120;13.136;2022-09-09T14:30:23;1364.20;;;628.22;;
54328;SDS011;40710;51.120;13.136;2022-09-09T14:32:47;1356.72;;;642.13;;
54328;SDS011;40710;51.120;13.136;2022-09-09T14:35:12;1376.22;;;563.00;;
54328;SDS011;40710;51.120;13.136;2022-09-09T14:37:36;1308.75;;;701.38;;
54328;SDS011;40710;51.120;13.136;2022-09-09T14:40:01;1303.07;;;728.55;;
54328;SDS011;40710;51.120;13.136;2022-09-09T14:42:25;1373.95;;;593.58;;
54328;SDS011;40710;51.120;13.136;2022-09-09T14:44:50;1380.28;;;574.67;;
54328;SDS011;40710;51.120;13.136;2022-09-09T14:47:15;1303.85;;;683.50;;
54328;SDS011;40710;51.120;13.136;2022-09-09T14:49:39;1306.50;;;722.15;;
54328;SDS011;40710;51.120;13.136;2022-09-09T14:52:04;1311.68;;;495.60;;
54328;SDS011;40710;51.120;13.136;2022-09-09T14:54:29;1315.18;;;614.03;;
54328;SDS011;40710;51.120;13.136;2022-09-09T14:56:53;1382.45;;;563.42;;
54328;SDS011;40710;51.120;13.136;2022-09-09T14:59:18;1313.38;;;620.60;;
54328;SDS011;40710;51.120;13.136;2022-09-09T15:01:42;1314.40;;;597.10;;
54328;SDS011;40710;51.120;13.136;2022-09-09T15:04:07;1378.15;;;595.25;;
54328;SDS011;40710;51.120;13.136;2022-09-09T15:06:32;1311.78;;;675.58;;
54328;SDS011;40710;51.120;13.136;2022-09-09T15:08:59;1321.15;;;622.67;;
54328;SDS011;40710;51.120;13.136;2022-09-09T15:11:28;1310.78;;;695.05;;
54328;SDS011;40710;51.120;13.136;2022-09-09T15:13:54;1371.75;;;600.92;;
54328;SDS011;40710;51.120;13.136;2022-09-09T15:16:19;1330.35;;;579.58;;
54328;SDS011;40710;51.120;13.136;2022-09-09T15:18:45;1327.30;;;641.13;;